Fort Myers, Florida
Current Conditions -  °F | °C
As of 4:53 AM on Saturday 22 Nov 2014 (Local Time) from KFMY Reporting Station
Overcast Overcast  
Wind Chill: 69°   Ceiling: 4900
Heat Index: 69°   Visibility: 10mi
Dew Point: 65°   Wind: 7mph
Humidity: 87%   Direction: 70°ENE
Pressure: 30.14"   Gusts: NA
Location:  26.64°N, 81.87°W
Report Text: KFMY 220953Z AUTO 07006KT 10SM FEW041 OVC049 21/18 A3014 RMK AO2 SLP208 T02060183
Loading
Personal Weather Stations






























Interactive Weather Map New forecast layout! Learn more

10-Day Weather Forecast

Advertisements
Track Severe Weather on mobile